Time;durP1;ratioP1;P1;durP2;ratioP2;P2;SDS_P1;SDS_P2;PMS_P1;PMS_P2;Temp;Humidity;BMP_temperature;BMP_pressure;BME280_temperature;BME280_humidity;BME280_pressure;Samples;Min_cycle;Max_cycle;Signal;HPM_P1;HPM_P2
2022/12/14 00:00:15;;;;;;;62.75;42.38;;;19.20;87.20;;;;;;1834279;77;21539;-82
2022/12/14 00:02:56;;;;;;;70.52;44.35;;;19.30;87.40;;;;;;1827393;77;21184;-82
2022/12/14 00:05:28;;;;;;;62.75;40.85;;;19.30;86.50;;;;;;1831385;78;21135;-82
2022/12/14 00:07:59;;;;;;;62.43;42.53;;;19.30;86.90;;;;;;1822331;77;21287;-81
2022/12/14 00:10:36;;;;;;;63.45;43.85;;;19.30;86.70;;;;;;1830096;77;21878;-80
2022/12/14 00:13:07;;;;;;;66.87;41.35;;;19.30;86.50;;;;;;1830859;77;21159;-78
2022/12/14 00:15:39;;;;;;;57.65;40.88;;;19.20;86.70;;;;;;1831954;77;21127;-81
2022/12/14 00:18:10;;;;;;;62.10;40.95;;;19.30;86.90;;;;;;1830039;77;21150;-83
2022/12/14 00:20:42;;;;;;;51.20;38.58;;;19.30;86.70;;;;;;1826065;77;21233;-81
2022/12/14 00:23:13;;;;;;;58.92;38.95;;;19.30;86.70;;;;;;1827660;77;21895;-79
2022/12/14 00:25:45;;;;;;;63.85;40.98;;;19.40;86.00;;;;;;1829247;77;21715;-83
2022/12/14 00:28:17;;;;;;;70.00;46.42;;;19.40;85.70;;;;;;1831206;77;21191;-82
2022/12/14 00:30:48;;;;;;;70.10;43.13;;;19.40;85.70;;;;;;1828069;77;21206;-84
2022/12/14 00:33:20;;;;;;;56.98;40.12;;;19.50;85.30;;;;;;1782210;79;21677;-83
2022/12/14 00:35:51;;;;;;;61.85;40.55;;;19.50;85.50;;;;;;1758231;79;21195;-80
2022/12/14 00:38:26;;;;;;;58.02;38.45;;;19.60;85.00;;;;;;1790630;79;21233;-81
2022/12/14 00:40:57;;;;;;;59.77;37.20;;;19.60;84.70;;;;;;1785590;79;21254;-81
2022/12/14 00:43:28;;;;;;;58.28;36.63;;;19.60;84.60;;;;;;1785683;79;21759;-81
2022/12/14 00:46:01;;;;;;;49.67;35.33;;;19.60;84.00;;;;;;1785504;79;21151;-82
2022/12/14 00:48:32;;;;;;;56.58;35.75;;;19.70;83.90;;;;;;1790443;79;21180;-83
2022/12/14 00:51:03;;;;;;;54.90;34.50;;;19.80;83.70;;;;;;1763292;80;21250;-80
2022/12/14 00:53:33;;;;;;;50.92;33.92;;;19.80;82.90;;;;;;1847516;76;21205;-81
2022/12/14 00:56:10;;;;;;;47.03;32.53;;;19.80;82.60;;;;;;1847707;75;21245;-79
2022/12/14 00:58:57;;;;;;;48.75;33.10;;;19.90;81.80;;;;;;1852898;75;21649;-79
2022/12/14 01:01:39;;;;;;;58.28;35.95;;;20.00;81.60;;;;;;1851430;76;21224;-81
2022/12/14 01:04:18;;;;;;;50.10;32.65;;;20.00;81.30;;;;;;1856424;76;21139;-82
2022/12/14 01:06:55;;;;;;;50.52;32.90;;;20.00;81.10;;;;;;1845778;76;21201;-80
2022/12/14 01:09:28;;;;;;;49.95;33.83;;;20.00;80.70;;;;;;1843126;76;21160;-82
2022/12/14 01:11:59;;;;;;;46.92;31.80;;;20.10;80.60;;;;;;1839343;75;21162;-80
2022/12/14 01:14:30;;;;;;;53.55;33.83;;;20.10;80.40;;;;;;1851299;75;22207;-71
2022/12/14 01:17:01;;;;;;;46.18;30.10;;;20.10;80.00;;;;;;1846349;76;21207;-71
2022/12/14 01:19:33;;;;;;;43.15;30.23;;;20.10;79.20;;;;;;1827287;77;21739;-71
2022/12/14 01:22:04;;;;;;;46.58;30.40;;;20.10;78.80;;;;;;1841494;77;21518;-71
2022/12/14 01:24:35;;;;;;;45.43;30.02;;;20.10;78.90;;;;;;1870950;76;21143;-71
2022/12/14 01:27:06;;;;;;;37.48;25.88;;;20.20;78.30;;;;;;1862399;76;21637;-71
2022/12/14 01:29:37;;;;;;;42.58;26.60;;;20.20;77.90;;;;;;1845839;76;21598;-70
2022/12/14 01:32:08;;;;;;;40.08;24.85;;;20.30;76.60;;;;;;1855777;77;21618;-71
2022/12/14 01:34:40;;;;;;;38.88;24.95;;;20.40;76.20;;;;;;1846797;77;21511;-71
2022/12/14 01:37:10;;;;;;;39.15;25.05;;;20.40;76.30;;;;;;1823828;76;21190;-71
2022/12/14 01:39:44;;;;;;;35.43;24.15;;;20.40;76.10;;;;;;1830813;77;21132;-70
2022/12/14 01:42:20;;;;;;;35.00;23.90;;;20.50;76.20;;;;;;1830845;78;21183;-71
2022/12/14 01:44:53;;;;;;;36.63;23.65;;;20.50;76.10;;;;;;1807397;78;21260;-71
2022/12/14 01:47:27;;;;;;;34.45;24.60;;;20.60;75.80;;;;;;1804958;77;21675;-71
2022/12/14 01:50:03;;;;;;;36.33;23.22;;;20.60;76.10;;;;;;1833615;77;21156;-71
2022/12/14 01:52:46;;;;;;;38.40;23.73;;;20.60;76.50;;;;;;1811133;78;21146;-71
2022/12/14 01:55:28;;;;;;;37.00;23.47;;;20.70;75.90;;;;;;1816165;77;21150;-71
2022/12/14 01:58:05;;;;;;;31.93;21.82;;;20.80;75.20;;;;;;1817365;77;21130;-71
2022/12/14 02:00:39;;;;;;;37.33;22.58;;;20.80;75.20;;;;;;1772179;79;21832;-71
2022/12/14 02:03:18;;;;;;;30.70;20.02;;;20.90;73.30;;;;;;1817414;78;21201;-71
2022/12/14 02:06:13;;;;;;;33.42;20.85;;;21.00;72.70;;;;;;1820203;78;21221;-71
2022/12/14 02:08:46;;;;;;;28.57;20.45;;;21.00;73.10;;;;;;1842171;76;21151;-71
2022/12/14 02:11:20;;;;;;;28.98;19.37;;;21.10;72.50;;;;;;1848061;76;21119;-71
2022/12/14 02:13:51;;;;;;;31.75;20.05;;;21.10;71.70;;;;;;1849656;76;21104;-71
2022/12/14 02:16:22;;;;;;;29.32;20.32;;;21.20;70.80;;;;;;1851908;76;21092;-71
2022/12/14 02:18:54;;;;;;;27.42;19.17;;;21.30;71.40;;;;;;1824809;77;21213;-71
2022/12/14 02:21:44;;;;;;;26.60;18.90;;;21.40;71.50;;;;;;1759615;79;21578;-71
2022/12/14 02:24:29;;;;;;;25.17;18.80;;;21.40;70.70;;;;;;1827238;77;21157;-71
2022/12/14 02:27:18;;;;;;;27.60;18.80;;;21.50;69.10;;;;;;1831722;76;21232;-72
2022/12/14 02:30:03;;;;;;;30.12;19.32;;;21.50;69.30;;;;;;1831235;76;21456;-71
2022/12/14 02:32:41;;;;;;;26.93;18.25;;;21.60;69.50;;;;;;1825851;77;21187;-72
2022/12/14 02:35:43;;;;;;;27.52;18.15;;;21.60;68.60;;;;;;1872325;76;21615;-71
2022/12/14 02:38:43;;;;;;;33.33;18.82;;;21.70;68.30;;;;;;1853991;75;21120;-72
2022/12/14 02:41:39;;;;;;;32.73;18.92;;;21.70;67.80;;;;;;1835496;76;22280;-71
2022/12/14 02:44:17;;;;;;;26.40;17.52;;;21.80;67.40;;;;;;1819671;77;21185;-72
2022/12/14 02:46:56;;;;;;;28.10;17.05;;;21.90;66.60;;;;;;1826825;76;21236;-71
2022/12/14 02:50:02;;;;;;;28.20;18.00;;;21.90;66.50;;;;;;1824442;77;21154;-71
2022/12/14 02:52:48;;;;;;;22.07;17.05;;;22.00;65.90;;;;;;1825839;76;21170;-70
2022/12/14 02:55:32;;;;;;;25.17;16.37;;;22.20;65.70;;;;;;1825948;76;21264;-71
2022/12/14 02:58:08;;;;;;;23.52;16.75;;;22.20;64.70;;;;;;1828108;78;21088;-71
2022/12/14 03:00:39;;;;;;;34.78;17.67;;;22.30;64.60;;;;;;1831094;76;21151;-72
2022/12/14 03:03:10;;;;;;;34.88;17.37;;;22.40;64.30;;;;;;1822644;77;21210;-71
2022/12/14 03:05:42;;;;;;;26.05;16.25;;;22.50;63.20;;;;;;1823178;77;21111;-71
2022/12/14 03:08:16;;;;;;;32.00;17.17;;;22.50;63.20;;;;;;1826655;76;21587;-72
2022/12/14 03:11:06;;;;;;;31.82;16.00;;;22.60;62.20;;;;;;1848630;76;21142;-71
2022/12/14 03:13:40;;;;;;;26.77;15.95;;;22.60;61.30;;;;;;1847667;76;21080;-70
2022/12/14 03:16:27;;;;;;;25.23;16.35;;;22.70;61.40;;;;;;1855430;75;21578;-71
2022/12/14 03:19:03;;;;;;;25.23;16.93;;;22.70;62.20;;;;;;1863267;76;21614;-71
2022/12/14 03:21:36;;;;;;;30.43;17.05;;;22.70;62.30;;;;;;1846697;76;21177;-71
2022/12/14 03:24:10;;;;;;;28.32;16.52;;;22.80;62.50;;;;;;1853130;75;21106;-71
2022/12/14 03:26:44;;;;;;;27.30;17.02;;;22.90;61.60;;;;;;1857618;75;21220;-70
2022/12/14 03:29:27;;;;;;;24.35;16.23;;;23.00;61.30;;;;;;1859947;76;21667;-71
2022/12/14 03:32:01;;;;;;;25.68;16.35;;;23.10;61.70;;;;;;1846027;76;21115;-71
2022/12/14 03:34:55;;;;;;;25.52;16.45;;;23.20;61.30;;;;;;1797213;78;21076;-71
2022/12/14 03:37:31;;;;;;;23.07;16.90;;;23.20;61.00;;;;;;1810584;78;21166;-70
2022/12/14 03:40:02;;;;;;;23.20;15.97;;;23.30;61.00;;;;;;1857437;76;21224;-71
2022/12/14 03:42:57;;;;;;;25.82;16.60;;;23.40;60.50;;;;;;1882414;75;21181;-71
2022/12/14 03:45:31;;;;;;;23.18;16.20;;;23.50;61.00;;;;;;1862020;75;21480;-71
2022/12/14 03:48:04;;;;;;;26.12;15.53;;;23.60;60.80;;;;;;1867247;75;21146;-71
2022/12/14 03:50:40;;;;;;;23.35;15.70;;;23.60;60.30;;;;;;1836060;77;21149;-70
2022/12/14 03:53:20;;;;;;;22.73;14.75;;;23.70;59.50;;;;;;1861312;75;21118;-70
2022/12/14 03:56:09;;;;;;;22.13;15.20;;;23.90;58.50;;;;;;1870099;75;21133;-70
2022/12/14 03:58:59;;;;;;;18.82;14.33;;;24.00;57.80;;;;;;1862739;76;21123;-71
2022/12/14 04:01:51;;;;;;;23.07;14.75;;;24.10;57.60;;;;;;1870475;75;21990;-71
2022/12/14 04:04:46;;;;;;;20.62;13.98;;;24.20;57.40;;;;;;1869856;75;21615;-71
2022/12/14 04:07:19;;;;;;;23.27;14.68;;;24.30;57.60;;;;;;1824539;77;21162;-70
2022/12/14 04:09:56;;;;;;;23.05;13.85;;;24.40;56.80;;;;;;1794557;76;21174;-70
2022/12/14 04:21:20;;;;;;;23.22;13.68;;;24.70;56.40;;;;;;1825693;77;21493;-71
2022/12/14 04:26:50;;;;;;;23.32;14.03;;;24.80;55.90;;;;;;1831847;78;21150;-71
2022/12/14 04:32:22;;;;;;;22.80;13.25;;;25.00;55.60;;;;;;1835430;77;21449;-70
2022/12/14 04:34:58;;;;;;;26.97;14.75;;;25.10;55.20;;;;;;1830833;78;21213;-71
2022/12/14 04:37:30;;;;;;;21.57;14.28;;;25.20;55.50;;;;;;1840264;77;21139;-70
2022/12/14 04:40:15;;;;;;;22.90;13.60;;;25.20;55.30;;;;;;1834631;77;21167;-70
2022/12/14 04:42:50;;;;;;;22.73;13.78;;;25.30;54.70;;;;;;1816028;79;21158;-71
2022/12/14 04:45:35;;;;;;;20.27;13.45;;;25.40;54.70;;;;;;1824876;78;21532;-71
2022/12/14 04:48:25;;;;;;;21.97;12.47;;;25.50;55.30;;;;;;1823796;77;21676;-70
2022/12/14 04:51:16;;;;;;;20.23;12.15;;;25.60;53.70;;;;;;1820619;77;21240;-71
2022/12/14 04:53:50;;;;;;;20.90;11.63;;;25.60;53.30;;;;;;1836816;78;22354;-71
2022/12/14 04:56:24;;;;;;;21.27;12.88;;;25.70;52.90;;;;;;1832144;78;21614;-69
2022/12/14 04:58:56;;;;;;;17.23;11.88;;;25.80;52.90;;;;;;1828884;77;21166;-71
2022/12/14 05:01:37;;;;;;;22.02;12.03;;;25.80;52.60;;;;;;1816693;77;21186;-70
2022/12/14 05:04:25;;;;;;;23.87;12.43;;;25.90;52.80;;;;;;1824331;77;21116;-71
2022/12/14 05:07:15;;;;;;;19.15;11.97;;;25.90;53.20;;;;;;1830786;78;21142;-71
2022/12/14 05:09:59;;;;;;;25.60;13.00;;;25.90;52.80;;;;;;1848689;76;21156;-72
2022/12/14 05:12:50;;;;;;;19.62;11.38;;;26.00;52.50;;;;;;1842915;76;21129;-71
2022/12/14 05:15:23;;;;;;;21.93;12.05;;;26.00;52.90;;;;;;1858240;76;21143;-72
2022/12/14 05:17:55;;;;;;;16.40;12.23;;;26.10;53.20;;;;;;1865911;76;21061;-71
2022/12/14 05:20:29;;;;;;;21.02;12.53;;;26.20;52.90;;;;;;1880222;76;21147;-72
2022/12/14 05:23:00;;;;;;;21.60;12.63;;;26.30;52.50;;;;;;1853133;76;21139;-72
2022/12/14 05:25:31;;;;;;;27.65;12.90;;;26.30;52.90;;;;;;1861727;76;21146;-72
2022/12/14 05:28:02;;;;;;;27.00;13.00;;;26.40;52.60;;;;;;1819892;78;21216;-72
2022/12/14 05:30:33;;;;;;;17.70;11.50;;;26.40;52.40;;;;;;1818991;78;21457;-72
2022/12/14 05:33:04;;;;;;;16.82;11.20;;;26.40;52.20;;;;;;1789674;79;21214;-72
2022/12/14 05:35:36;;;;;;;17.05;11.85;;;26.50;52.10;;;;;;1773797;80;21197;-70
2022/12/14 05:38:08;;;;;;;18.23;11.73;;;26.50;52.50;;;;;;1809804;78;21157;-71
2022/12/14 05:40:41;;;;;;;17.52;12.00;;;26.60;53.00;;;;;;1812487;79;21087;-70
2022/12/14 05:43:12;;;;;;;19.57;12.37;;;26.60;52.60;;;;;;1794017;79;21159;-73
2022/12/14 05:45:44;;;;;;;21.65;13.00;;;26.70;51.90;;;;;;1850639;76;21178;-72
2022/12/14 05:48:22;;;;;;;21.30;12.07;;;26.60;52.20;;;;;;1850463;76;21188;-71
2022/12/14 05:50:53;;;;;;;18.85;13.43;;;26.70;52.70;;;;;;1855091;76;21599;-71
2022/12/14 05:53:26;;;;;;;20.95;13.28;;;26.70;53.00;;;;;;1857992;76;21447;-72
2022/12/14 05:55:58;;;;;;;20.60;12.37;;;26.60;52.70;;;;;;1845942;77;21475;-72
2022/12/14 05:58:29;;;;;;;17.23;12.63;;;26.70;53.00;;;;;;1852162;76;21956;-73
2022/12/14 06:01:02;;;;;;;17.73;11.60;;;26.70;52.90;;;;;;1846760;76;21131;-72
2022/12/14 06:03:34;;;;;;;20.08;12.10;;;26.80;52.30;;;;;;1853520;76;21139;-72
2022/12/14 06:06:08;;;;;;;17.77;11.10;;;26.80;52.20;;;;;;1843493;76;21560;-72
2022/12/14 06:08:41;;;;;;;18.77;11.05;;;26.90;51.80;;;;;;1846896;76;21089;-71
2022/12/14 06:11:20;;;;;;;17.62;11.80;;;26.90;51.80;;;;;;1821096;78;21142;-71
2022/12/14 06:13:53;;;;;;;16.10;11.75;;;26.90;51.90;;;;;;1849777;76;21108;-73
2022/12/14 06:16:25;;;;;;;17.52;11.88;;;26.90;51.40;;;;;;1827601;76;21548;-72
2022/12/14 06:19:01;;;;;;;18.32;12.73;;;26.90;51.30;;;;;;1822228;78;21206;-73
2022/12/14 06:21:34;;;;;;;14.85;11.20;;;26.90;51.80;;;;;;1855786;76;21141;-72
2022/12/14 06:24:07;;;;;;;16.97;12.05;;;26.90;52.10;;;;;;1851566;76;21589;-71
2022/12/14 06:26:42;;;;;;;28.35;12.15;;;26.90;52.20;;;;;;1856774;76;21121;-72
2022/12/14 06:29:15;;;;;;;18.17;11.88;;;26.90;52.10;;;;;;1848480;76;21162;-71
2022/12/14 06:31:47;;;;;;;18.45;11.88;;;27.00;52.20;;;;;;1843970;77;21084;-71
2022/12/14 06:34:19;;;;;;;27.25;11.28;;;27.00;51.90;;;;;;1851707;76;21154;-72
2022/12/14 06:36:51;;;;;;;22.25;12.18;;;27.00;52.40;;;;;;1832738;75;21288;-71
2022/12/14 06:39:43;;;;;;;19.67;11.65;;;27.00;52.80;;;;;;1858719;76;21172;-72
2022/12/14 06:42:17;;;;;;;16.95;11.48;;;27.00;52.00;;;;;;1889778;74;21190;-72
2022/12/14 06:44:48;;;;;;;19.65;11.03;;;27.00;51.90;;;;;;1914557;74;21108;-71
2022/12/14 06:47:20;;;;;;;17.07;11.33;;;27.00;53.20;;;;;;1915442;73;21657;-73
2022/12/14 06:50:10;;;;;;;17.05;11.73;;;27.00;52.50;;;;;;1923651;73;21516;-72
2022/12/14 06:52:40;;;;;;;16.65;11.73;;;27.00;52.90;;;;;;1898519;74;21085;-72
2022/12/14 06:55:17;;;;;;;24.98;12.90;;;27.00;52.20;;;;;;1917016;73;21619;-72
2022/12/14 06:57:54;;;;;;;19.55;11.95;;;27.00;52.50;;;;;;1904081;73;21623;-72
2022/12/14 07:00:26;;;;;;;18.15;11.85;;;27.00;52.30;;;;;;1899298;73;22414;-70
2022/12/14 07:02:56;;;;;;;21.33;11.60;;;27.10;52.50;;;;;;1927008;73;21114;-72
2022/12/14 07:05:28;;;;;;;20.32;11.60;;;27.10;52.50;;;;;;1906227;73;21628;-72
2022/12/14 07:08:00;;;;;;;16.27;11.78;;;27.10;52.70;;;;;;1902497;73;21667;-73
2022/12/14 07:10:32;;;;;;;20.15;12.80;;;27.00;52.90;;;;;;1919984;74;21143;-72
2022/12/14 07:13:03;;;;;;;16.75;11.93;;;27.00;53.10;;;;;;1897514;74;21276;-72
2022/12/14 07:15:37;;;;;;;18.27;11.70;;;27.00;52.40;;;;;;1915744;74;21053;-72
2022/12/14 07:18:17;;;;;;;15.32;11.15;;;27.00;52.70;;;;;;1915884;73;21196;-72
2022/12/14 07:21:07;;;;;;;15.03;11.25;;;26.90;52.80;;;;;;1935732;73;22333;-71
2022/12/14 07:23:41;;;;;;;16.90;11.48;;;27.00;53.00;;;;;;1892467;73;21092;-72
2022/12/14 07:26:14;;;;;;;15.23;11.48;;;27.00;53.00;;;;;;1957660;73;21128;-71
2022/12/14 07:28:45;;;;;;;21.00;11.93;;;27.00;53.00;;;;;;1957754;73;21121;-72
2022/12/14 07:31:23;;;;;;;19.05;11.95;;;27.00;52.80;;;;;;1943587;73;21560;-71
2022/12/14 07:34:00;;;;;;;21.42;11.97;;;27.10;52.50;;;;;;1922503;73;21635;-71
2022/12/14 07:36:42;;;;;;;;;;;27.00;52.30;;;;;;1926542;74;21081;-70
2022/12/14 07:39:14;;;;;;;19.23;12.70;;;26.90;52.90;;;;;;1925133;73;20134;-70
2022/12/14 07:41:46;;;;;;;22.82;12.63;;;26.90;53.40;;;;;;1896372;73;21084;-72
2022/12/14 07:44:17;;;;;;;17.80;11.80;;;26.90;53.60;;;;;;1877770;73;21608;-72
2022/12/14 07:46:49;;;;;;;17.82;12.93;;;26.90;53.40;;;;;;1855358;77;21172;-72
2022/12/14 07:49:23;;;;;;;17.77;12.88;;;26.90;53.00;;;;;;1903596;74;21655;-73
2022/12/14 07:51:54;;;;;;;22.22;12.35;;;26.90;53.40;;;;;;1904433;74;21131;-74
2022/12/14 07:54:25;;;;;;;23.75;11.88;;;26.90;53.20;;;;;;1909234;73;21714;-71
2022/12/14 07:56:56;;;;;;;20.50;12.00;;;26.90;53.70;;;;;;1885552;73;21188;-73
2022/12/14 07:59:30;;;;;;;20.32;12.03;;;26.90;53.60;;;;;;1876621;75;21613;-72
2022/12/14 08:02:01;;;;;;;15.00;11.63;;;26.90;53.00;;;;;;1853957;76;21098;-73
2022/12/14 08:04:36;;;;;;;19.17;11.93;;;26.90;53.20;;;;;;1879494;75;21579;-71
2022/12/14 08:07:07;;;;;;;18.40;12.53;;;26.80;53.40;;;;;;1893519;75;21139;-75
2022/12/14 08:09:39;;;;;;;21.23;12.00;;;26.80;53.70;;;;;;1873750;74;21186;-73
2022/12/14 08:12:15;;;;;;;25.82;16.87;;;26.80;53.60;;;;;;1871680;76;21175;-71
2022/12/14 08:14:52;;;;;;;23.35;15.40;;;26.70;53.40;;;;;;1859026;76;21144;-73
2022/12/14 08:17:25;;;;;;;21.30;13.48;;;26.70;53.80;;;;;;1861104;74;21124;-73
2022/12/14 08:19:57;;;;;;;18.98;13.55;;;26.80;53.30;;;;;;1874171;76;21117;-73
2022/12/14 08:22:28;;;;;;;23.20;13.85;;;26.80;53.50;;;;;;1884219;75;21108;-73
2022/12/14 08:24:59;;;;;;;18.70;11.83;;;26.70;53.80;;;;;;1907479;74;21792;-71
2022/12/14 08:27:31;;;;;;;17.65;12.90;;;26.70;53.60;;;;;;1902297;74;21049;-73
2022/12/14 08:30:06;;;;;;;20.25;12.88;;;26.70;53.60;;;;;;1906477;73;21197;-74
2022/12/14 08:32:57;;;;;;;22.27;15.58;;;26.70;53.90;;;;;;1888469;75;21116;-73
2022/12/14 08:35:31;;;;;;;24.25;15.75;;;26.70;53.80;;;;;;1863595;76;21564;-72
2022/12/14 08:38:02;;;;;;;19.30;14.18;;;26.60;54.00;;;;;;1863627;75;21176;-71
2022/12/14 08:40:35;;;;;;;18.70;12.37;;;26.60;54.20;;;;;;1858944;76;21276;-72
2022/12/14 08:43:06;;;;;;;20.52;13.80;;;26.60;54.30;;;;;;1824398;77;21161;-72
2022/12/14 08:45:38;;;;;;;21.70;12.55;;;26.50;54.00;;;;;;1832756;77;21269;-75
2022/12/14 08:48:09;;;;;;;22.60;12.90;;;26.50;54.40;;;;;;1839348;76;21171;-73
2022/12/14 08:50:42;;;;;;;16.73;12.93;;;26.50;54.60;;;;;;1790692;79;21092;-72
2022/12/14 08:53:14;;;;;;;19.20;13.38;;;26.50;55.00;;;;;;1788575;79;21200;-72
2022/12/14 08:55:46;;;;;;;21.57;13.30;;;26.40;54.90;;;;;;1831986;77;21140;-72
2022/12/14 08:58:17;;;;;;;17.52;12.35;;;26.50;54.40;;;;;;1835912;77;21121;-72
2022/12/14 09:00:48;;;;;;;19.98;14.18;;;26.50;54.30;;;;;;1814514;77;21167;-72
2022/12/14 09:03:19;;;;;;;18.35;13.45;;;26.50;54.60;;;;;;1821057;78;21631;-72
2022/12/14 09:05:50;;;;;;;22.25;13.93;;;26.40;54.80;;;;;;1857539;76;21181;-73
2022/12/14 09:08:21;;;;;;;20.75;14.03;;;26.40;54.80;;;;;;1870752;76;21130;-72
2022/12/14 09:10:52;;;;;;;22.90;13.03;;;26.40;55.20;;;;;;1825580;77;21168;-72
2022/12/14 09:13:24;;;;;;;17.73;12.23;;;26.40;54.70;;;;;;1797665;78;21566;-73
2022/12/14 09:16:00;;;;;;;20.80;12.53;;;26.40;54.70;;;;;;1784326;80;21115;-72
2022/12/14 09:18:33;;;;;;;18.23;12.30;;;26.30;54.80;;;;;;1823891;77;21535;-73
2022/12/14 09:21:24;;;;;;;20.82;12.50;;;26.30;54.80;;;;;;1831469;77;21189;-73
2022/12/14 09:23:55;;;;;;;18.42;13.13;;;26.30;54.90;;;;;;1857670;75;21289;-72
2022/12/14 09:26:29;;;;;;;17.32;12.23;;;26.30;55.00;;;;;;1853554;77;21111;-71
2022/12/14 09:29:01;;;;;;;21.20;13.78;;;26.30;55.20;;;;;;1857542;76;21300;-73
2022/12/14 09:31:32;;;;;;;20.10;12.98;;;26.20;55.10;;;;;;1864640;75;21215;-73
2022/12/14 09:34:03;;;;;;;23.38;14.30;;;26.20;55.40;;;;;;1866954;75;21159;-73
2022/12/14 09:36:35;;;;;;;20.32;12.95;;;26.20;55.40;;;;;;1840664;77;21128;-73
2022/12/14 09:39:06;;;;;;;23.40;12.98;;;26.10;55.50;;;;;;1868037;75;21135;-73
2022/12/14 09:41:42;;;;;;;18.48;13.62;;;26.10;55.80;;;;;;1876930;75;21188;-73
2022/12/14 09:44:27;;;;;;;17.52;12.73;;;26.10;55.90;;;;;;1860094;77;21152;-73
2022/12/14 09:47:06;;;;;;;19.15;13.55;;;26.10;55.90;;;;;;1862228;75;22130;-72
2022/12/14 09:49:49;;;;;;;21.82;12.90;;;26.10;56.30;;;;;;1873205;75;21646;-74
2022/12/14 09:52:44;;;;;;;19.02;13.38;;;26.00;56.20;;;;;;1875758;76;21139;-72
2022/12/14 09:55:33;;;;;;;18.37;12.95;;;26.00;56.30;;;;;;1797495;79;21161;-71
2022/12/14 09:58:27;;;;;;;24.12;13.95;;;25.90;56.50;;;;;;1795826;79;21232;-71
2022/12/14 10:01:24;;;;;;;22.73;14.38;;;25.90;56.70;;;;;;1782584;80;21232;-73
2022/12/14 10:04:20;;;;;;;21.05;13.98;;;25.80;56.90;;;;;;1758363;80;21926;-72
2022/12/14 10:07:06;;;;;;;21.55;14.00;;;25.80;57.10;;;;;;1808766;76;21119;-72
2022/12/14 10:10:06;;;;;;;18.85;13.30;;;25.70;57.10;;;;;;1841132;76;21230;-73
2022/12/14 10:12:51;;;;;;;20.50;13.43;;;25.70;57.30;;;;;;1849935;76;21088;-70
2022/12/14 10:15:41;;;;;;;19.62;14.30;;;25.70;57.50;;;;;;1870787;76;21615;-72
2022/12/14 10:18:47;;;;;;;19.62;14.07;;;25.60;57.70;;;;;;1861160;75;21503;-72
2022/12/14 10:21:27;;;;;;;25.85;13.18;;;25.60;57.90;;;;;;1825324;76;21217;-73
2022/12/14 10:24:00;;;;;;;20.70;13.20;;;25.50;58.20;;;;;;1791559;78;21166;-72
2022/12/14 10:26:34;;;;;;;22.25;13.90;;;25.50;58.40;;;;;;1791928;79;21158;-73
2022/12/14 10:29:07;;;;;;;21.48;13.93;;;25.50;58.60;;;;;;1875648;76;21152;-71
2022/12/14 10:31:49;;;;;;;20.57;14.18;;;25.40;58.70;;;;;;1835418;75;21542;-72
2022/12/14 10:34:23;;;;;;;26.57;13.90;;;25.40;58.90;;;;;;1866105;75;21497;-71
2022/12/14 10:36:57;;;;;;;24.35;15.78;;;25.40;59.10;;;;;;1821045;77;21239;-71
2022/12/14 10:39:39;;;;;;;23.90;13.80;;;25.30;59.40;;;;;;1820879;77;21156;-71
2022/12/14 10:42:30;;;;;;;22.25;13.50;;;25.30;59.50;;;;;;1843937;76;21212;-73
2022/12/14 10:45:27;;;;;;;20.50;14.75;;;25.30;59.60;;;;;;1838291;77;21155;-71
2022/12/14 10:48:14;;;;;;;23.55;14.73;;;25.30;59.90;;;;;;1817821;77;21160;-71
2022/12/14 10:50:59;;;;;;;26.07;14.85;;;25.20;60.20;;;;;;1868892;76;21105;-72
2022/12/14 10:53:45;;;;;;;23.22;15.05;;;25.10;60.30;;;;;;1865899;76;21163;-72
2022/12/14 10:56:25;;;;;;;20.27;14.90;;;25.10;60.50;;;;;;1872694;76;21721;-72
2022/12/14 10:59:22;;;;;;;25.17;15.40;;;25.10;60.80;;;;;;1884366;76;21419;-72
2022/12/14 11:02:17;;;;;;;22.37;15.35;;;25.00;60.90;;;;;;1873913;76;21179;-71
2022/12/14 11:05:08;;;;;;;23.75;14.83;;;25.00;61.20;;;;;;1784152;77;21173;-71
2022/12/14 11:07:44;;;;;;;22.45;15.05;;;25.00;61.50;;;;;;1879859;75;21174;-71
2022/12/14 11:10:23;;;;;;;28.05;18.02;;;24.90;61.80;;;;;;1868060;75;21092;-72
2022/12/14 11:13:20;;;;;;;26.02;17.32;;;24.90;63.00;;;;;;1868083;76;21238;-72
2022/12/14 11:15:52;;;;;;;26.42;17.70;;;24.90;62.40;;;;;;1872704;76;21115;-72
2022/12/14 11:18:25;;;;;;;36.23;18.32;;;24.80;62.50;;;;;;1878615;76;21141;-72
2022/12/14 11:21:05;;;;;;;30.35;19.52;;;24.80;62.80;;;;;;1867136;75;21155;-71
2022/12/14 11:23:41;;;;;;;27.77;19.23;;;24.70;63.00;;;;;;1849910;76;21141;-71
2022/12/14 11:26:19;;;;;;;25.57;18.83;;;24.70;63.20;;;;;;1872869;75;21072;-72
2022/12/14 11:28:52;;;;;;;26.15;19.00;;;24.70;63.30;;;;;;1876018;75;21159;-71
2022/12/14 11:31:25;;;;;;;35.00;23.22;;;24.60;63.50;;;;;;1851661;76;21091;-71
2022/12/14 11:33:59;;;;;;;37.13;21.12;;;24.60;63.50;;;;;;1865267;76;21068;-71
2022/12/14 11:36:40;;;;;;;38.95;21.37;;;24.60;63.90;;;;;;1870492;74;21176;-72
2022/12/14 11:39:16;;;;;;;32.80;20.68;;;24.60;64.20;;;;;;1872038;76;21154;-71
2022/12/14 11:42:00;;;;;;;30.57;20.53;;;24.50;64.40;;;;;;1799842;77;21150;-70
2022/12/14 11:44:34;;;;;;;29.37;18.15;;;24.50;64.40;;;;;;1791919;78;21630;-71
2022/12/14 11:47:10;;;;;;;32.75;18.82;;;24.50;64.40;;;;;;1831423;78;21112;-71
2022/12/14 11:49:48;;;;;;;32.50;20.15;;;24.40;64.60;;;;;;1872283;76;21127;-71
2022/12/14 11:52:28;;;;;;;33.83;21.52;;;24.40;64.70;;;;;;1878590;75;21147;-72
2022/12/14 11:55:05;;;;;;;40.28;22.13;;;24.40;64.80;;;;;;1873014;75;21127;-72
2022/12/14 11:57:39;;;;;;;41.33;23.90;;;24.40;64.80;;;;;;1848677;76;21142;-72
2022/12/14 12:00:32;;;;;;;37.67;23.20;;;24.30;64.90;;;;;;1858186;76;21551;-72
2022/12/14 12:03:18;;;;;;;38.70;23.05;;;24.30;65.20;;;;;;1871336;76;21150;-71
2022/12/14 12:05:50;;;;;;;43.58;26.52;;;24.30;65.30;;;;;;1871825;76;21213;-71
2022/12/14 12:08:29;;;;;;;43.20;25.97;;;24.30;65.30;;;;;;1877273;76;21135;-71
2022/12/14 12:11:04;;;;;;;41.65;25.82;;;24.20;65.30;;;;;;1873042;76;21138;-71
2022/12/14 12:13:39;;;;;;;40.65;24.67;;;24.20;65.50;;;;;;1872108;76;21154;-72
2022/12/14 12:16:18;;;;;;;39.58;24.12;;;24.20;65.40;;;;;;1870750;75;21519;-72
2022/12/14 12:19:01;;;;;;;34.40;23.52;;;24.20;65.50;;;;;;1866938;75;21602;-71
2022/12/14 12:21:41;;;;;;;33.98;22.00;;;24.10;65.40;;;;;;1827853;76;21202;-71
2022/12/14 12:24:25;;;;;;;32.67;21.50;;;24.10;65.40;;;;;;1854924;76;21107;-71
2022/12/14 12:27:10;;;;;;;32.85;20.97;;;24.00;65.40;;;;;;1857528;77;21160;-72
2022/12/14 12:29:43;;;;;;;32.80;22.45;;;24.10;65.50;;;;;;1877706;75;21193;-72
2022/12/14 12:32:46;;;;;;;36.80;22.67;;;24.00;65.30;;;;;;1855974;76;21111;-71
2022/12/14 12:35:39;;;;;;;36.35;24.25;;;24.00;65.40;;;;;;1872817;75;21200;-71
2022/12/14 12:38:17;;;;;;;42.38;24.95;;;24.00;65.60;;;;;;1903891;73;21561;-72
2022/12/14 12:41:02;;;;;;;39.73;26.87;;;24.00;65.50;;;;;;1872611;76;21109;-72
2022/12/14 12:43:39;;;;;;;43.97;28.60;;;23.90;65.50;;;;;;1895024;74;21624;-72
2022/12/14 12:46:18;;;;;;;37.63;27.10;;;23.90;65.60;;;;;;1853640;75;21763;-71
2022/12/14 12:48:52;;;;;;;36.88;26.60;;;23.80;65.80;;;;;;1850421;75;21148;-70
2022/12/14 12:51:25;;;;;;;44.42;26.85;;;23.80;66.10;;;;;;1898392;74;21230;-71
2022/12/14 12:54:08;;;;;;;45.67;26.05;;;23.80;66.20;;;;;;1885238;75;21224;-72
2022/12/14 12:56:44;;;;;;;37.70;25.12;;;23.70;66.20;;;;;;1883462;75;21117;-71
2022/12/14 12:59:23;;;;;;;35.83;24.67;;;23.70;66.50;;;;;;1836642;76;21640;-72
2022/12/14 13:01:59;;;;;;;37.65;24.20;;;23.70;66.60;;;;;;1881615;75;21692;-72
2022/12/14 13:04:39;;;;;;;38.13;24.72;;;23.60;66.60;;;;;;1879162;75;21172;-70
2022/12/14 13:07:13;;;;;;;37.38;23.57;;;23.70;66.60;;;;;;1914236;75;21133;-71
2022/12/14 13:09:50;;;;;;;37.60;23.65;;;23.60;66.70;;;;;;1885688;75;21123;-72
2022/12/14 13:12:29;;;;;;;34.03;23.70;;;23.60;66.70;;;;;;1874480;74;21682;-71
2022/12/14 13:15:02;;;;;;;42.23;26.02;;;23.50;66.90;;;;;;1879329;75;21074;-72
2022/12/14 13:17:41;;;;;;;39.25;25.15;;;23.50;67.00;;;;;;1894872;75;21181;-72
2022/12/14 13:20:24;;;;;;;43.55;27.00;;;23.50;67.10;;;;;;1923175;73;21652;-72
2022/12/14 13:22:56;;;;;;;38.75;26.35;;;23.50;67.20;;;;;;1870420;73;21168;-71
2022/12/14 13:25:57;;;;;;;39.98;26.45;;;23.50;67.30;;;;;;1887834;73;21116;-71
2022/12/14 13:28:58;;;;;;;45.67;25.65;;;23.40;67.30;;;;;;1819887;76;21194;-70
2022/12/14 13:31:34;;;;;;;41.77;26.27;;;23.40;67.50;;;;;;1886318;75;21227;-70
2022/12/14 13:34:32;;;;;;;42.88;25.95;;;23.40;67.60;;;;;;1892574;73;21258;-72